Česky Dansk Deutsch English Español Suomi Français Magyar Italiano Nederlands norsk Polski Português svenska Türkçe

 

Het Weer

Sucre (Bolivië)

22:00, 13 mei 2016 (GMT)

NWNNE
WE
SWSSE
Home            
Sucre Potosi Cochabamba Camiri Oruro Santa Cruz / El Trompillo Viru-Viru Tarija Villamontes La Quiaca Observatorio Yacuiba Nueva Asuncion La Paz / Alto San Javier Tartagal Aerodrome Ascencion De Guarayos San Ignacio De Moxos Trinidad Oran Aerodrome Concepcion Charana San Borja San Jose De Chiquitos

Om een weerknop op uw website of weblog te plaatsen, copieer onderstaande code en plak die in uw pagina. In het eerste vakje staat HTML-code, in het tweede vakje UBB-code.


Add to Google

Details

Wind speed:3 bf, 7 kn, 3.6 m/s, 8.1 miles/h, 13.0 km/h
Wind direction:NNE, 030°
Visibility:Greater than 10000 m, 10 km, 32800 ft, 6.2 miles
Clouds:Ein wenig bewölkt at 1700 ft, 518 m
Temperature:16°C, 61°F
Dew-point:7°C, 45°F
Atmospheric pressure:1028 hPa, 771.1 mmHg, 30.36 inHg, 1.015 atm
Relative humidity:55.1 %
METAR:SLSU 132200Z 03007KT 9999 FEW017 16/07 Q1028

Snelkoppelingen

Actuele weersinformatie van de hele wereld. Voeg locaties toe met het plus (+) symbool. Deze snelkoppelingen kunnen worden toegevoegd aan Google.

Lid van de Technetium groep

website free tracking
StatCounter NetStat W3C Validator

25-11-2020 08:53:55
astro.technetium.be money.technetium.be phote.technetium.be tafeltennistafel.technetium.be www.ligfiets.net